createdAt,value
2023-04-24T00:04:02.906Z,82.76
2023-04-24T00:14:24.462Z,85.11
2023-04-24T00:24:45.809Z,80.00
2023-04-24T00:35:07.468Z,76.59
2023-04-24T00:45:29.012Z,76.72
2023-04-24T00:55:52.344Z,78.56
2023-04-24T01:06:14.388Z,78.71
2023-04-24T01:16:36.765Z,79.71
2023-04-24T01:26:58.251Z,78.85
2023-04-24T01:37:19.658Z,77.33
2023-04-24T01:47:41.245Z,76.71
2023-04-24T01:58:03.231Z,76.97
2023-04-24T02:08:24.952Z,77.75
2023-04-24T02:18:46.357Z,78.59
2023-04-24T02:29:07.755Z,77.00
2023-04-24T02:39:29.115Z,78.37
2023-04-24T02:49:50.490Z,76.52
2023-04-24T03:00:12.626Z,78.52
2023-04-24T03:10:33.995Z,78.56
2023-04-24T03:20:55.353Z,77.94
2023-04-24T03:31:17.656Z,78.22
2023-04-24T03:41:39.104Z,77.73
2023-04-24T03:52:00.469Z,78.02
2023-04-24T04:02:21.955Z,78.46
2023-04-24T04:12:43.463Z,78.77
2023-04-24T04:23:04.886Z,80.24
2023-04-24T04:33:26.915Z,80.31
2023-04-24T04:43:48.688Z,80.24
2023-04-24T04:54:10.050Z,80.78
2023-04-24T05:04:31.585Z,81.54
2023-04-24T05:14:53.169Z,81.72
2023-04-24T05:25:14.610Z,81.03
2023-04-24T05:35:36.011Z,81.02
2023-04-24T05:45:57.441Z,80.59
2023-04-24T05:56:19.453Z,79.17
2023-04-24T06:06:41.329Z,79.74
2023-04-24T06:17:02.902Z,79.20
2023-04-24T06:27:24.284Z,77.86
2023-04-24T06:37:45.633Z,78.83
2023-04-24T06:48:07.174Z,78.24
2023-04-24T06:58:28.727Z,77.85
2023-04-24T07:08:50.275Z,77.66
2023-04-24T07:19:11.792Z,78.52
2023-04-24T07:29:33.162Z,78.31
2023-04-24T07:39:55.982Z,77.18
2023-04-24T07:50:17.554Z,76.77
2023-04-24T08:00:39.064Z,75.45
2023-04-24T08:11:00.418Z,75.79
2023-04-24T08:21:22.440Z,75.33
2023-04-24T08:31:43.952Z,74.56
2023-04-24T08:42:08.868Z,74.43
2023-04-24T08:52:30.888Z,73.16
2023-04-24T09:02:53.452Z,74.94
2023-04-24T09:13:15.561Z,73.21
2023-04-24T09:23:36.966Z,74.41
2023-04-24T09:34:01.716Z,76.75
2023-04-24T09:44:24.227Z,79.00
2023-04-24T09:54:53.432Z,80.20
2023-04-24T10:05:16.250Z,81.50
2023-04-24T10:15:38.239Z,80.97
2023-04-24T10:26:01.275Z,81.08
2023-04-24T10:36:24.590Z,81.45
2023-04-24T10:46:48.503Z,83.30
2023-04-24T10:57:19.452Z,82.92
2023-04-24T11:08:06.225Z,85.92
2023-04-24T11:18:37.655Z,86.57
2023-04-24T11:29:08.883Z,87.99
2023-04-24T11:39:37.123Z,85.88
2023-04-24T11:49:59.406Z,86.59
2023-04-24T12:00:22.531Z,87.23
2023-04-24T12:10:44.075Z,87.57
2023-04-24T12:21:23.183Z,86.80
2023-04-24T12:31:44.837Z,85.54
2023-04-24T12:42:06.354Z,88.56
2023-04-24T12:52:28.941Z,87.65
2023-04-24T13:02:50.633Z,90.06
2023-04-24T13:13:12.241Z,88.76
2023-04-24T13:23:33.622Z,87.34
2023-04-24T13:33:55.071Z,88.04
2023-04-24T13:44:17.336Z,88.08
2023-04-24T13:54:38.899Z,87.50
2023-04-24T14:05:00.471Z,88.35
2023-04-24T14:15:22.129Z,88.45
2023-04-24T14:25:43.517Z,86.48
2023-04-24T14:36:06.571Z,85.10
2023-04-24T14:46:28.028Z,84.15
2023-04-24T14:56:49.797Z,85.23
2023-04-24T15:07:11.185Z,84.89
2023-04-24T15:17:33.021Z,84.40
2023-04-24T15:27:54.460Z,84.98
2023-04-24T15:38:15.856Z,85.03
2023-04-24T15:48:39.276Z,83.72
2023-04-24T15:59:00.879Z,84.27
2023-04-24T16:09:22.278Z,83.36
2023-04-24T16:19:43.636Z,84.03
2023-04-24T16:30:05.670Z,84.87
2023-04-24T16:40:27.114Z,87.28
2023-04-24T16:50:48.475Z,84.39
2023-04-24T17:01:10.127Z,83.06
2023-04-24T17:11:31.562Z,83.19
2023-04-24T17:21:53.088Z,83.33
2023-04-24T17:32:14.501Z,81.93
2023-04-24T17:42:38.365Z,81.16
2023-04-24T17:52:59.813Z,81.70
2023-04-24T18:03:21.357Z,82.92
2023-04-24T18:13:42.928Z,84.33
2023-04-24T18:24:04.461Z,84.83
2023-04-24T18:34:26.146Z,85.58
2023-04-24T18:44:47.537Z,85.32
2023-04-24T18:55:09.796Z,86.70
2023-04-24T19:05:31.228Z,86.47
2023-04-24T19:15:52.574Z,86.91
2023-04-24T19:26:14.469Z,86.20
2023-04-24T19:36:36.429Z,87.50
2023-04-24T19:46:57.859Z,85.03
2023-04-24T19:57:19.245Z,84.57
2023-04-24T20:07:40.650Z,84.17
2023-04-24T20:18:02.050Z,84.33
2023-04-24T20:28:24.291Z,84.18
2023-04-24T20:38:47.087Z,84.38
2023-04-24T20:49:08.694Z,84.44
2023-04-24T20:59:30.266Z,85.06
2023-04-24T21:09:51.657Z,84.67
2023-04-24T21:20:13.078Z,85.11
2023-04-24T21:30:34.437Z,85.49
2023-04-24T21:40:55.836Z,85.17
2023-04-24T21:51:18.018Z,86.03
2023-04-24T22:01:39.503Z,85.91
2023-04-24T22:12:01.634Z,86.90
2023-04-24T22:22:23.032Z,88.42
2023-04-24T22:32:44.471Z,85.45
2023-04-24T22:43:06.347Z,86.62
2023-04-24T22:53:28.858Z,86.59
2023-04-24T23:03:51.489Z,88.78
2023-04-24T23:14:13.194Z,89.73
2023-04-24T23:24:34.539Z,87.39
2023-04-24T23:34:56.452Z,88.12
2023-04-24T23:45:17.857Z,86.26
2023-04-24T23:55:39.230Z,86.01
